sensor_id;sensor_type;location;lat;lon;timestamp;pressure;altitude;pressure_sealevel;temperature;humidity
57000;BME280;42891;50.006;21.964;2023-05-23T00:01:24;50868.44;;;-146.02;57.15
57000;BME280;42891;50.006;21.964;2023-05-23T00:05:25;50888.47;;;-146.02;57.30
57000;BME280;42891;50.006;21.964;2023-05-23T00:09:26;50892.47;;;-146.02;57.58
57000;BME280;42891;50.006;21.964;2023-05-23T00:13:26;50904.50;;;-146.02;57.88
57000;BME280;42891;50.006;21.964;2023-05-23T00:17:26;50932.56;;;-146.02;57.61
57000;BME280;42891;50.006;21.964;2023-05-23T00:21:27;50904.50;;;-146.02;57.95
57000;BME280;42891;50.006;21.964;2023-05-23T00:25:29;50922.53;;;-146.02;57.32
57000;BME280;42891;50.006;21.964;2023-05-23T00:29:33;50874.44;;;-146.02;57.90
57000;BME280;42891;50.006;21.964;2023-05-23T00:33:33;50890.47;;;-146.02;57.59
57000;BME280;42891;50.006;21.964;2023-05-23T00:37:33;50882.47;;;-146.02;57.51
57000;BME280;42891;50.006;21.964;2023-05-23T00:41:34;50870.44;;;-146.02;57.69
57000;BME280;42891;50.006;21.964;2023-05-23T00:45:35;50892.47;;;-146.02;57.82
57000;BME280;42891;50.006;21.964;2023-05-23T00:49:35;50906.50;;;-146.02;58.07
57000;BME280;42891;50.006;21.964;2023-05-23T00:53:36;50912.53;;;-146.02;58.64
57000;BME280;42891;50.006;21.964;2023-05-23T00:57:37;50914.53;;;-146.02;58.90
57000;BME280;42891;50.006;21.964;2023-05-23T01:01:39;50904.50;;;-146.02;59.23
57000;BME280;42891;50.006;21.964;2023-05-23T01:05:40;50902.50;;;-146.02;58.52
57000;BME280;42891;50.006;21.964;2023-05-23T01:09:40;50894.50;;;-146.02;58.85
57000;BME280;42891;50.006;21.964;2023-05-23T01:13:58;50910.53;;;-146.02;59.24
57000;BME280;42891;50.006;21.964;2023-05-23T01:22:20;50898.50;;;-146.02;58.86
57000;BME280;42891;50.006;21.964;2023-05-23T01:26:27;50938.56;;;-146.02;59.34
57000;BME280;42891;50.006;21.964;2023-05-23T01:30:34;50912.53;;;-146.02;59.04
57000;BME280;42891;50.006;21.964;2023-05-23T01:34:38;50884.47;;;-146.02;58.46
57000;BME280;42891;50.006;21.964;2023-05-23T01:38:40;50888.47;;;-146.02;57.92
57000;BME280;42891;50.006;21.964;2023-05-23T01:42:40;50930.56;;;-146.02;58.29
57000;BME280;42891;50.006;21.964;2023-05-23T01:46:41;50914.53;;;-146.02;58.74
57000;BME280;42891;50.006;21.964;2023-05-23T01:50:43;50886.47;;;-146.02;58.81
57000;BME280;42891;50.006;21.964;2023-05-23T01:54:47;50890.47;;;-146.02;58.65
57000;BME280;42891;50.006;21.964;2023-05-23T01:58:48;50890.47;;;-146.02;58.52
57000;BME280;42891;50.006;21.964;2023-05-23T02:02:48;50896.50;;;-146.02;58.96
57000;BME280;42891;50.006;21.964;2023-05-23T02:06:49;50904.50;;;-146.02;58.56
57000;BME280;42891;50.006;21.964;2023-05-23T02:10:49;50904.50;;;-146.02;59.01
57000;BME280;42891;50.006;21.964;2023-05-23T02:14:49;50934.56;;;-146.02;59.19
57000;BME280;42891;50.006;21.964;2023-05-23T02:18:53;50936.56;;;-146.02;59.47
57000;BME280;42891;50.006;21.964;2023-05-23T02:22:55;50924.53;;;-146.02;59.56
57000;BME280;42891;50.006;21.964;2023-05-23T02:26:55;50934.56;;;-146.02;59.85
57000;BME280;42891;50.006;21.964;2023-05-23T02:30:56;50906.50;;;-146.02;59.45
57000;BME280;42891;50.006;21.964;2023-05-23T02:34:57;50924.53;;;-146.02;59.03
57000;BME280;42891;50.006;21.964;2023-05-23T02:38:58;50926.53;;;-146.02;59.67
57000;BME280;42891;50.006;21.964;2023-05-23T02:42:58;50910.53;;;-146.02;58.93
57000;BME280;42891;50.006;21.964;2023-05-23T02:46:59;50886.47;;;-146.02;59.32
57000;BME280;42891;50.006;21.964;2023-05-23T02:51:00;50928.56;;;-146.02;59.60
57000;BME280;42891;50.006;21.964;2023-05-23T02:55:00;50932.56;;;-146.02;60.15
57000;BME280;42891;50.006;21.964;2023-05-23T02:59:01;50924.53;;;-146.02;60.24
57000;BME280;42891;50.006;21.964;2023-05-23T03:03:01;50916.53;;;-146.02;60.17
57000;BME280;42891;50.006;21.964;2023-05-23T03:07:01;50888.47;;;-146.02;59.79
57000;BME280;42891;50.006;21.964;2023-05-23T03:11:02;50902.50;;;-146.02;59.93
57000;BME280;42891;50.006;21.964;2023-05-23T03:15:03;50890.47;;;-146.02;60.48
57000;BME280;42891;50.006;21.964;2023-05-23T03:19:03;50936.56;;;-146.02;60.75
57000;BME280;42891;50.006;21.964;2023-05-23T03:23:04;50912.53;;;-146.02;60.96
57000;BME280;42891;50.006;21.964;2023-05-23T03:27:04;50940.56;;;-146.02;61.95
57000;BME280;42891;50.006;21.964;2023-05-23T03:31:04;50936.56;;;-146.02;62.48
57000;BME280;42891;50.006;21.964;2023-05-23T03:35:05;50960.59;;;-146.02;62.17
57000;BME280;42891;50.006;21.964;2023-05-23T03:39:06;50932.56;;;-146.02;62.58
57000;BME280;42891;50.006;21.964;2023-05-23T03:43:07;50932.56;;;-146.02;63.25
57000;BME280;42891;50.006;21.964;2023-05-23T03:47:08;50920.53;;;-146.02;62.56
57000;BME280;42891;50.006;21.964;2023-05-23T03:51:09;50938.56;;;-146.02;62.86
57000;BME280;42891;50.006;21.964;2023-05-23T03:55:09;50928.56;;;-146.02;63.47
57000;BME280;42891;50.006;21.964;2023-05-23T03:59:10;50930.56;;;-146.02;63.89
57000;BME280;42891;50.006;21.964;2023-05-23T04:03:10;50970.63;;;-146.02;63.94
57000;BME280;42891;50.006;21.964;2023-05-23T04:07:14;50942.56;;;-146.02;63.77
57000;BME280;42891;50.006;21.964;2023-05-23T04:11:14;50928.56;;;-146.02;64.29
57000;BME280;42891;50.006;21.964;2023-05-23T04:15:16;50896.50;;;-146.02;64.47
57000;BME280;42891;50.006;21.964;2023-05-23T04:19:17;50950.59;;;-146.02;64.31
57000;BME280;42891;50.006;21.964;2023-05-23T04:23:17;50898.50;;;-146.02;64.85
57000;BME280;42891;50.006;21.964;2023-05-23T04:27:17;50920.53;;;-146.02;64.41
57000;BME280;42891;50.006;21.964;2023-05-23T04:31:22;50898.50;;;-146.02;63.90
57000;BME280;42891;50.006;21.964;2023-05-23T04:35:22;50890.47;;;-146.02;64.17
57000;BME280;42891;50.006;21.964;2023-05-23T04:39:23;50900.50;;;-146.02;64.33
57000;BME280;42891;50.006;21.964;2023-05-23T04:43:24;50914.53;;;-146.02;64.44
57000;BME280;42891;50.006;21.964;2023-05-23T04:47:26;50928.56;;;-146.02;64.39
57000;BME280;42891;50.006;21.964;2023-05-23T04:51:27;50964.63;;;-146.02;64.57
57000;BME280;42891;50.006;21.964;2023-05-23T04:55:27;50920.53;;;-146.02;63.61
57000;BME280;42891;50.006;21.964;2023-05-23T04:59:28;50946.59;;;-146.02;63.77
57000;BME280;42891;50.006;21.964;2023-05-23T05:03:28;50928.56;;;-146.02;63.74
57000;BME280;42891;50.006;21.964;2023-05-23T05:07:29;50930.56;;;-146.02;65.27
57000;BME280;42891;50.006;21.964;2023-05-23T05:11:30;50926.53;;;-146.02;64.74
57000;BME280;42891;50.006;21.964;2023-05-23T05:15:30;50898.50;;;-146.02;64.54
57000;BME280;42891;50.006;21.964;2023-05-23T05:19:31;50902.50;;;-146.02;64.19
57000;BME280;42891;50.006;21.964;2023-05-23T05:23:32;50908.50;;;-146.02;64.40
57000;BME280;42891;50.006;21.964;2023-05-23T05:27:32;50922.53;;;-146.02;64.10
57000;BME280;42891;50.006;21.964;2023-05-23T05:31:33;50878.47;;;-146.02;62.73
57000;BME280;42891;50.006;21.964;2023-05-23T05:35:34;50894.50;;;-146.02;62.14
57000;BME280;42891;50.006;21.964;2023-05-23T05:39:37;50898.50;;;-146.02;61.37
57000;BME280;42891;50.006;21.964;2023-05-23T05:43:37;50918.53;;;-146.02;60.89
57000;BME280;42891;50.006;21.964;2023-05-23T05:47:38;50934.56;;;-146.02;60.41
57000;BME280;42891;50.006;21.964;2023-05-23T05:51:38;50916.53;;;-146.02;59.90
57000;BME280;42891;50.006;21.964;2023-05-23T05:55:38;50900.50;;;-146.02;60.55
57000;BME280;42891;50.006;21.964;2023-05-23T05:59:39;50920.53;;;-146.02;60.82
57000;BME280;42891;50.006;21.964;2023-05-23T06:03:40;50924.53;;;-146.02;61.17
57000;BME280;42891;50.006;21.964;2023-05-23T06:07:41;50890.47;;;-146.02;62.17
57000;BME280;42891;50.006;21.964;2023-05-23T06:11:41;50904.50;;;-146.02;61.46
57000;BME280;42891;50.006;21.964;2023-05-23T06:15:42;50890.47;;;-146.02;60.74
57000;BME280;42891;50.006;21.964;2023-05-23T06:19:42;50892.47;;;-146.02;61.25
57000;BME280;42891;50.006;21.964;2023-05-23T06:23:43;50934.56;;;-146.02;60.15
57000;BME280;42891;50.006;21.964;2023-05-23T06:27:43;50894.50;;;-146.02;61.04
57000;BME280;42891;50.006;21.964;2023-05-23T06:31:45;50894.50;;;-146.02;59.71
57000;BME280;42891;50.006;21.964;2023-05-23T06:35:45;50892.47;;;-146.02;58.56
57000;BME280;42891;50.006;21.964;2023-05-23T06:39:45;50898.50;;;-146.02;58.59
57000;BME280;42891;50.006;21.964;2023-05-23T06:43:46;50904.50;;;-146.02;58.61
57000;BME280;42891;50.006;21.964;2023-05-23T06:47:46;50884.47;;;-146.02;58.92
57000;BME280;42891;50.006;21.964;2023-05-23T06:51:47;50904.50;;;-146.02;59.01
57000;BME280;42891;50.006;21.964;2023-05-23T06:55:47;50886.47;;;-146.02;59.04
57000;BME280;42891;50.006;21.964;2023-05-23T06:59:47;50904.50;;;-146.02;60.08
57000;BME280;42891;50.006;21.964;2023-05-23T07:03:48;50896.50;;;-146.02;58.29
57000;BME280;42891;50.006;21.964;2023-05-23T07:07:48;50860.44;;;-146.02;59.52
57000;BME280;42891;50.006;21.964;2023-05-23T07:11:48;50868.44;;;-146.02;56.68
57000;BME280;42891;50.006;21.964;2023-05-23T07:15:49;50882.47;;;-146.02;57.07
57000;BME280;42891;50.006;21.964;2023-05-23T07:19:49;50878.47;;;-146.02;56.57
57000;BME280;42891;50.006;21.964;2023-05-23T07:23:49;50880.47;;;-146.02;55.56
57000;BME280;42891;50.006;21.964;2023-05-23T07:27:50;50874.44;;;-146.02;57.17
57000;BME280;42891;50.006;21.964;2023-05-23T07:31:53;50880.47;;;-146.02;56.85
57000;BME280;42891;50.006;21.964;2023-05-23T07:35:53;50858.41;;;-146.02;55.81
57000;BME280;42891;50.006;21.964;2023-05-23T07:39:54;50860.44;;;-146.02;55.43
57000;BME280;42891;50.006;21.964;2023-05-23T07:43:54;50848.41;;;-146.02;55.35
57000;BME280;42891;50.006;21.964;2023-05-23T07:47:55;50834.38;;;-146.02;55.03
57000;BME280;42891;50.006;21.964;2023-05-23T07:51:55;50854.41;;;-146.02;53.82
57000;BME280;42891;50.006;21.964;2023-05-23T07:55:55;50864.44;;;-146.02;52.57
57000;BME280;42891;50.006;21.964;2023-05-23T07:59:56;50870.44;;;-146.02;52.67
57000;BME280;42891;50.006;21.964;2023-05-23T08:03:56;50850.41;;;-146.02;52.95
57000;BME280;42891;50.006;21.964;2023-05-23T08:07:56;50840.38;;;-146.02;49.39
57000;BME280;42891;50.006;21.964;2023-05-23T08:11:57;50844.41;;;-146.02;48.89
57000;BME280;42891;50.006;21.964;2023-05-23T08:15:57;50852.41;;;-146.02;47.14
57000;BME280;42891;50.006;21.964;2023-05-23T08:19:57;50820.34;;;-146.02;45.48
57000;BME280;42891;50.006;21.964;2023-05-23T08:23:59;50866.44;;;-146.02;45.92
57000;BME280;42891;50.006;21.964;2023-05-23T08:28:00;50816.34;;;-146.02;44.92
57000;BME280;42891;50.006;21.964;2023-05-23T08:32:01;50822.34;;;-146.02;46.11
57000;BME280;42891;50.006;21.964;2023-05-23T08:36:01;50800.31;;;-146.02;46.14
57000;BME280;42891;50.006;21.964;2023-05-23T08:40:01;50870.44;;;-146.02;44.75
57000;BME280;42891;50.006;21.964;2023-05-23T08:44:03;50828.38;;;-146.02;43.68
57000;BME280;42891;50.006;21.964;2023-05-23T08:48:05;50812.34;;;-146.02;43.66
57000;BME280;42891;50.006;21.964;2023-05-23T08:52:11;50820.34;;;-146.02;43.33
57000;BME280;42891;50.006;21.964;2023-05-23T08:56:12;50802.31;;;-146.02;43.45
57000;BME280;42891;50.006;21.964;2023-05-23T09:00:14;50810.34;;;-146.02;42.83
57000;BME280;42891;50.006;21.964;2023-05-23T09:04:15;50806.31;;;-146.02;42.99
57000;BME280;42891;50.006;21.964;2023-05-23T09:08:16;50802.31;;;-146.02;41.35
57000;BME280;42891;50.006;21.964;2023-05-23T09:12:18;50790.28;;;-146.02;43.61
57000;BME280;42891;50.006;21.964;2023-05-23T09:16:21;50818.34;;;-146.02;41.63
57000;BME280;42891;50.006;21.964;2023-05-23T09:20:22;50824.34;;;-146.02;40.97
57000;BME280;42891;50.006;21.964;2023-05-23T09:24:22;50776.28;;;-146.02;40.95
57000;BME280;42891;50.006;21.964;2023-05-23T09:28:22;50764.25;;;-146.02;40.50
57000;BME280;42891;50.006;21.964;2023-05-23T09:32:22;50810.34;;;-146.02;40.53
57000;BME280;42891;50.006;21.964;2023-05-23T09:36:26;50760.25;;;-146.02;40.13
57000;BME280;42891;50.006;21.964;2023-05-23T09:40:31;50796.31;;;-146.02;41.27
57000;BME280;42891;50.006;21.964;2023-05-23T09:44:40;50802.31;;;-146.02;39.78
57000;BME280;42891;50.006;21.964;2023-05-23T09:48:48;50790.28;;;-146.02;40.06
57000;BME280;42891;50.006;21.964;2023-05-23T09:52:50;50776.28;;;-146.02;40.23
57000;BME280;42891;50.006;21.964;2023-05-23T09:56:53;50786.28;;;-146.02;39.00
57000;BME280;42891;50.006;21.964;2023-05-23T10:00:56;50776.28;;;-146.02;38.06
57000;BME280;42891;50.006;21.964;2023-05-23T10:04:57;50788.28;;;-146.02;37.42
57000;BME280;42891;50.006;21.964;2023-05-23T10:09:03;50776.28;;;-146.02;37.71
57000;BME280;42891;50.006;21.964;2023-05-23T10:13:04;50764.25;;;-146.02;38.90
57000;BME280;42891;50.006;21.964;2023-05-23T10:17:15;50770.25;;;-146.02;38.80
57000;BME280;42891;50.006;21.964;2023-05-23T10:21:18;50748.22;;;-146.02;36.43
57000;BME280;42891;50.006;21.964;2023-05-23T10:25:23;50808.34;;;-146.02;35.87
57000;BME280;42891;50.006;21.964;2023-05-23T10:29:24;50750.22;;;-146.02;38.86
57000;BME280;42891;50.006;21.964;2023-05-23T10:33:27;50758.25;;;-146.02;38.71
57000;BME280;42891;50.006;21.964;2023-05-23T10:37:36;50762.25;;;-146.02;38.28
57000;BME280;42891;50.006;21.964;2023-05-23T10:41:47;50732.19;;;-146.02;37.84
57000;BME280;42891;50.006;21.964;2023-05-23T10:45:48;50796.31;;;-146.02;37.98
57000;BME280;42891;50.006;21.964;2023-05-23T10:49:54;50762.25;;;-146.02;37.11
57000;BME280;42891;50.006;21.964;2023-05-23T10:53:54;50738.19;;;-146.02;38.15
57000;BME280;42891;50.006;21.964;2023-05-23T10:58:15;50736.19;;;-146.02;37.79
57000;BME280;42891;50.006;21.964;2023-05-23T11:02:25;50718.16;;;-146.02;39.03
57000;BME280;42891;50.006;21.964;2023-05-23T11:06:52;50754.22;;;-146.02;39.16
57000;BME280;42891;50.006;21.964;2023-05-23T11:11:00;50698.13;;;-146.02;40.81
57000;BME280;42891;50.006;21.964;2023-05-23T11:15:01;50736.19;;;-146.02;37.59
57000;BME280;42891;50.006;21.964;2023-05-23T11:19:28;50696.13;;;-146.02;40.68
57000;BME280;42891;50.006;21.964;2023-05-23T11:23:39;50758.25;;;-146.02;39.15
57000;BME280;42891;50.006;21.964;2023-05-23T11:27:45;50758.25;;;-146.02;39.85
57000;BME280;42891;50.006;21.964;2023-05-23T11:31:45;50688.13;;;-146.02;39.73
57000;BME280;42891;50.006;21.964;2023-05-23T11:35:47;50734.19;;;-146.02;36.80
57000;BME280;42891;50.006;21.964;2023-05-23T11:39:48;50736.19;;;-146.02;38.66
57000;BME280;42891;50.006;21.964;2023-05-23T11:43:52;50720.16;;;-146.02;39.28
57000;BME280;42891;50.006;21.964;2023-05-23T11:47:52;50728.19;;;-146.02;39.60
57000;BME280;42891;50.006;21.964;2023-05-23T11:51:53;50684.09;;;-146.02;38.61
57000;BME280;42891;50.006;21.964;2023-05-23T11:55:55;50716.16;;;-146.02;37.48
57000;BME280;42891;50.006;21.964;2023-05-23T11:59:57;50662.06;;;-146.02;38.23
57000;BME280;42891;50.006;21.964;2023-05-23T12:03:57;50684.09;;;-146.02;38.46
57000;BME280;42891;50.006;21.964;2023-05-23T12:07:58;50692.13;;;-146.02;38.69
57000;BME280;42891;50.006;21.964;2023-05-23T12:11:59;50670.09;;;-146.02;37.95
57000;BME280;42891;50.006;21.964;2023-05-23T12:16:01;50692.13;;;-146.02;38.96
57000;BME280;42891;50.006;21.964;2023-05-23T12:20:02;50652.03;;;-146.02;38.44
57000;BME280;42891;50.006;21.964;2023-05-23T12:24:20;50684.09;;;-146.02;38.76
57000;BME280;42891;50.006;21.964;2023-05-23T12:28:42;50662.06;;;-146.02;38.15
57000;BME280;42891;50.006;21.964;2023-05-23T12:32:45;50664.06;;;-146.02;38.54
57000;BME280;42891;50.006;21.964;2023-05-23T12:36:46;50660.06;;;-146.02;37.55
57000;BME280;42891;50.006;21.964;2023-05-23T12:41:06;50670.09;;;-146.02;36.96
57000;BME280;42891;50.006;21.964;2023-05-23T12:45:07;50694.13;;;-146.02;37.95
57000;BME280;42891;50.006;21.964;2023-05-23T12:49:07;50646.03;;;-146.02;37.56
57000;BME280;42891;50.006;21.964;2023-05-23T12:53:08;50686.09;;;-146.02;37.15
57000;BME280;42891;50.006;21.964;2023-05-23T12:57:08;50668.06;;;-146.02;37.35
57000;BME280;42891;50.006;21.964;2023-05-23T13:01:09;50686.09;;;-146.02;36.99
57000;BME280;42891;50.006;21.964;2023-05-23T13:05:10;50660.06;;;-146.02;36.98
57000;BME280;42891;50.006;21.964;2023-05-23T13:09:11;50676.09;;;-146.02;36.86
57000;BME280;42891;50.006;21.964;2023-05-23T13:13:11;50664.06;;;-146.02;37.57
57000;BME280;42891;50.006;21.964;2023-05-23T13:17:12;50676.09;;;-146.02;36.68
57000;BME280;42891;50.006;21.964;2023-05-23T13:21:12;50662.06;;;-146.02;37.12
57000;BME280;42891;50.006;21.964;2023-05-23T13:25:13;50650.03;;;-146.02;36.25
57000;BME280;42891;50.006;21.964;2023-05-23T13:29:13;50678.09;;;-146.02;35.95
57000;BME280;42891;50.006;21.964;2023-05-23T13:33:13;50626.00;;;-146.02;36.86
57000;BME280;42891;50.006;21.964;2023-05-23T13:37:14;50670.09;;;-146.02;36.29
57000;BME280;42891;50.006;21.964;2023-05-23T13:41:15;50660.06;;;-146.02;36.58
57000;BME280;42891;50.006;21.964;2023-05-23T13:45:16;50666.06;;;-146.02;36.17
57000;BME280;42891;50.006;21.964;2023-05-23T13:49:16;50678.09;;;-146.02;36.06
57000;BME280;42891;50.006;21.964;2023-05-23T13:53:17;50654.06;;;-146.02;36.55
57000;BME280;42891;50.006;21.964;2023-05-23T13:57:18;50648.03;;;-146.02;36.49
57000;BME280;42891;50.006;21.964;2023-05-23T14:01:18;50660.06;;;-146.02;36.67
57000;BME280;42891;50.006;21.964;2023-05-23T14:05:19;50642.03;;;-146.02;35.82
57000;BME280;42891;50.006;21.964;2023-05-23T14:09:19;50688.13;;;-146.02;35.46
57000;BME280;42891;50.006;21.964;2023-05-23T14:13:19;50652.03;;;-146.02;35.30
57000;BME280;42891;50.006;21.964;2023-05-23T14:17:20;50664.06;;;-146.02;35.70
57000;BME280;42891;50.006;21.964;2023-05-23T14:21:21;50640.03;;;-146.02;35.25
57000;BME280;42891;50.006;21.964;2023-05-23T14:25:21;50642.03;;;-146.02;35.70
57000;BME280;42891;50.006;21.964;2023-05-23T14:29:22;50634.00;;;-146.02;35.97
57000;BME280;42891;50.006;21.964;2023-05-23T14:33:22;50650.03;;;-146.02;35.09
57000;BME280;42891;50.006;21.964;2023-05-23T14:37:23;50654.06;;;-146.02;35.54
57000;BME280;42891;50.006;21.964;2023-05-23T14:41:23;50672.09;;;-146.02;35.33
57000;BME280;42891;50.006;21.964;2023-05-23T14:45:23;50660.06;;;-146.02;35.56
57000;BME280;42891;50.006;21.964;2023-05-23T14:49:24;50620.00;;;-146.02;35.56
57000;BME280;42891;50.006;21.964;2023-05-23T14:53:24;50648.03;;;-146.02;35.16
57000;BME280;42891;50.006;21.964;2023-05-23T14:57:24;50644.03;;;-146.02;35.80
57000;BME280;42891;50.006;21.964;2023-05-23T15:01:25;50648.03;;;-146.02;35.33
57000;BME280;42891;50.006;21.964;2023-05-23T15:05:26;50646.03;;;-146.02;35.19
57000;BME280;42891;50.006;21.964;2023-05-23T15:09:26;50624.00;;;-146.02;35.62
57000;BME280;42891;50.006;21.964;2023-05-23T15:13:27;50632.00;;;-146.02;35.22
57000;BME280;42891;50.006;21.964;2023-05-23T15:17:31;50620.00;;;-146.02;35.07
57000;BME280;42891;50.006;21.964;2023-05-23T15:21:32;50650.03;;;-146.02;35.43
57000;BME280;42891;50.006;21.964;2023-05-23T15:25:33;50599.97;;;-146.02;35.22
57000;BME280;42891;50.006;21.964;2023-05-23T15:29:33;50634.00;;;-146.02;34.81
57000;BME280;42891;50.006;21.964;2023-05-23T15:33:38;50624.00;;;-146.02;35.02
57000;BME280;42891;50.006;21.964;2023-05-23T15:37:39;50640.03;;;-146.02;35.66
57000;BME280;42891;50.006;21.964;2023-05-23T15:41:40;50630.00;;;-146.02;35.68
57000;BME280;42891;50.006;21.964;2023-05-23T15:45:40;50642.03;;;-146.02;35.70
57000;BME280;42891;50.006;21.964;2023-05-23T15:49:41;50664.06;;;-146.02;35.27
57000;BME280;42891;50.006;21.964;2023-05-23T15:53:41;50654.06;;;-146.02;36.30
57000;BME280;42891;50.006;21.964;2023-05-23T15:57:41;50626.00;;;-146.02;36.39
57000;BME280;42891;50.006;21.964;2023-05-23T16:01:42;50652.03;;;-146.02;36.84
57000;BME280;42891;50.006;21.964;2023-05-23T16:05:42;50628.00;;;-146.02;36.74
57000;BME280;42891;50.006;21.964;2023-05-23T16:09:43;50668.06;;;-146.02;37.00
57000;BME280;42891;50.006;21.964;2023-05-23T16:13:43;50656.06;;;-146.02;37.07
57000;BME280;42891;50.006;21.964;2023-05-23T16:17:44;50656.06;;;-146.02;37.46
57000;BME280;42891;50.006;21.964;2023-05-23T16:21:44;50666.06;;;-146.02;37.50
57000;BME280;42891;50.006;21.964;2023-05-23T16:25:45;50654.06;;;-146.02;37.62
57000;BME280;42891;50.006;21.964;2023-05-23T16:29:45;50678.09;;;-146.02;36.80
57000;BME280;42891;50.006;21.964;2023-05-23T16:33:45;50690.13;;;-146.02;36.93
57000;BME280;42891;50.006;21.964;2023-05-23T16:37:46;50658.06;;;-146.02;37.01
57000;BME280;42891;50.006;21.964;2023-05-23T16:41:46;50652.03;;;-146.02;37.07
57000;BME280;42891;50.006;21.964;2023-05-23T16:45:46;50626.00;;;-146.02;37.86
57000;BME280;42891;50.006;21.964;2023-05-23T16:49:47;50646.03;;;-146.02;37.63
57000;BME280;42891;50.006;21.964;2023-05-23T16:53:47;50650.03;;;-146.02;37.94
57000;BME280;42891;50.006;21.964;2023-05-23T16:57:48;50724.19;;;-146.02;38.35
57000;BME280;42891;50.006;21.964;2023-05-23T17:01:48;50710.16;;;-146.02;38.84
57000;BME280;42891;50.006;21.964;2023-05-23T17:05:49;50672.09;;;-146.02;38.83
57000;BME280;42891;50.006;21.964;2023-05-23T17:09:49;50662.06;;;-146.02;39.05
57000;BME280;42891;50.006;21.964;2023-05-23T17:13:49;50702.13;;;-146.02;39.61
57000;BME280;42891;50.006;21.964;2023-05-23T17:17:51;50698.13;;;-146.02;40.81
57000;BME280;42891;50.006;21.964;2023-05-23T17:21:51;50692.13;;;-146.02;41.37
57000;BME280;42891;50.006;21.964;2023-05-23T17:25:52;50708.16;;;-146.02;40.93
57000;BME280;42891;50.006;21.964;2023-05-23T17:29:53;50710.16;;;-146.02;41.15
57000;BME280;42891;50.006;21.964;2023-05-23T17:33:53;50718.16;;;-146.02;39.94
57000;BME280;42891;50.006;21.964;2023-05-23T17:37:54;50722.19;;;-146.02;41.03
57000;BME280;42891;50.006;21.964;2023-05-23T17:41:56;50690.13;;;-146.02;47.41
57000;BME280;42891;50.006;21.964;2023-05-23T17:45:57;50712.16;;;-146.02;51.03
57000;BME280;42891;50.006;21.964;2023-05-23T17:49:57;50732.19;;;-146.02;52.03
57000;BME280;42891;50.006;21.964;2023-05-23T17:53:57;50722.19;;;-146.02;52.81
57000;BME280;42891;50.006;21.964;2023-05-23T17:57:58;50732.19;;;-146.02;54.90
57000;BME280;42891;50.006;21.964;2023-05-23T18:01:59;50736.19;;;-146.02;56.71
57000;BME280;42891;50.006;21.964;2023-05-23T18:05:59;50752.22;;;-146.02;56.68
57000;BME280;42891;50.006;21.964;2023-05-23T18:09:59;50720.16;;;-146.02;58.41
57000;BME280;42891;50.006;21.964;2023-05-23T18:14:00;50728.19;;;-146.02;58.74
57000;BME280;42891;50.006;21.964;2023-05-23T18:18:00;50752.22;;;-146.02;59.52
57000;BME280;42891;50.006;21.964;2023-05-23T18:22:01;50758.25;;;-146.02;60.49
57000;BME280;42891;50.006;21.964;2023-05-23T18:26:01;50756.22;;;-146.02;61.26
57000;BME280;42891;50.006;21.964;2023-05-23T18:30:01;50768.25;;;-146.02;61.15
57000;BME280;42891;50.006;21.964;2023-05-23T18:34:02;50764.25;;;-146.02;61.29
57000;BME280;42891;50.006;21.964;2023-05-23T18:38:03;50748.22;;;-146.02;61.71
57000;BME280;42891;50.006;21.964;2023-05-23T18:42:03;50786.28;;;-146.02;62.45
57000;BME280;42891;50.006;21.964;2023-05-23T18:46:04;50734.19;;;-146.02;63.33
57000;BME280;42891;50.006;21.964;2023-05-23T18:50:05;50790.28;;;-146.02;63.14
57000;BME280;42891;50.006;21.964;2023-05-23T18:54:06;50756.22;;;-146.02;63.87
57000;BME280;42891;50.006;21.964;2023-05-23T18:58:06;50772.25;;;-146.02;64.62
57000;BME280;42891;50.006;21.964;2023-05-23T19:02:07;50788.28;;;-146.02;64.39
57000;BME280;42891;50.006;21.964;2023-05-23T19:06:07;50776.28;;;-146.02;63.72
57000;BME280;42891;50.006;21.964;2023-05-23T19:10:08;50794.31;;;-146.02;63.28
57000;BME280;42891;50.006;21.964;2023-05-23T19:14:08;50766.25;;;-146.02;63.20
57000;BME280;42891;50.006;21.964;2023-05-23T19:18:09;50740.22;;;-146.02;63.71
57000;BME280;42891;50.006;21.964;2023-05-23T19:22:09;50844.41;;;-146.02;63.75
57000;BME280;42891;50.006;21.964;2023-05-23T19:26:09;50792.31;;;-146.02;62.24
57000;BME280;42891;50.006;21.964;2023-05-23T19:30:12;50780.28;;;-146.02;63.55
57000;BME280;42891;50.006;21.964;2023-05-23T19:34:12;50774.28;;;-146.02;62.23
57000;BME280;42891;50.006;21.964;2023-05-23T19:38:13;50812.34;;;-146.02;61.61
57000;BME280;42891;50.006;21.964;2023-05-23T19:42:13;50804.31;;;-146.02;61.54
57000;BME280;42891;50.006;21.964;2023-05-23T19:46:13;50788.28;;;-146.02;62.14
57000;BME280;42891;50.006;21.964;2023-05-23T19:50:14;50796.31;;;-146.02;61.15
57000;BME280;42891;50.006;21.964;2023-05-23T19:54:16;50778.28;;;-146.02;60.25
57000;BME280;42891;50.006;21.964;2023-05-23T19:58:16;50812.34;;;-146.02;59.67
57000;BME280;42891;50.006;21.964;2023-05-23T20:02:17;50782.28;;;-146.02;61.28
57000;BME280;42891;50.006;21.964;2023-05-23T20:06:17;50818.34;;;-146.02;61.76
57000;BME280;42891;50.006;21.964;2023-05-23T20:10:18;50788.28;;;-146.02;62.64
57000;BME280;42891;50.006;21.964;2023-05-23T20:14:18;50790.28;;;-146.02;62.67
57000;BME280;42891;50.006;21.964;2023-05-23T20:18:19;50772.25;;;-146.02;63.85
57000;BME280;42891;50.006;21.964;2023-05-23T20:22:19;50822.34;;;-146.02;61.92
57000;BME280;42891;50.006;21.964;2023-05-23T20:26:20;50842.38;;;-146.02;62.15
57000;BME280;42891;50.006;21.964;2023-05-23T20:30:21;50808.34;;;-146.02;61.87
57000;BME280;42891;50.006;21.964;2023-05-23T20:34:22;50800.31;;;-146.02;63.06